sensor_id;sensor_type;location;lat;lon;timestamp;pressure;altitude;pressure_sealevel;temperature;humidity
8653;BME280;4364;52.426;9.424;2023-08-01T00:00:10;99393.59;;;15.60;100.00
8653;BME280;4364;52.426;9.424;2023-08-01T00:02:37;99386.66;;;15.62;100.00
8653;BME280;4364;52.426;9.424;2023-08-01T00:05:05;99379.91;;;15.60;100.00
8653;BME280;4364;52.426;9.424;2023-08-01T00:07:31;99373.84;;;15.66;100.00
8653;BME280;4364;52.426;9.424;2023-08-01T00:10:03;99363.81;;;15.70;100.00
8653;BME280;4364;52.426;9.424;2023-08-01T00:12:29;99364.72;;;15.74;100.00
8653;BME280;4364;52.426;9.424;2023-08-01T00:14:57;99370.53;;;15.73;100.00
8653;BME280;4364;52.426;9.424;2023-08-01T00:17:23;99361.09;;;15.70;100.00
8653;BME280;4364;52.426;9.424;2023-08-01T00:19:50;99368.47;;;15.70;100.00
8653;BME280;4364;52.426;9.424;2023-08-01T00:22:16;99361.66;;;15.64;100.00
8653;BME280;4364;52.426;9.424;2023-08-01T00:24:43;99351.03;;;15.62;100.00
8653;BME280;4364;52.426;9.424;2023-08-01T00:27:10;99343.72;;;15.66;100.00
8653;BME280;4364;52.426;9.424;2023-08-01T00:29:36;99336.66;;;15.65;100.00
8653;BME280;4364;52.426;9.424;2023-08-01T00:32:04;99334.81;;;15.69;100.00
8653;BME280;4364;52.426;9.424;2023-08-01T00:34:30;99326.69;;;15.73;100.00
8653;BME280;4364;52.426;9.424;2023-08-01T00:36:57;99317.34;;;15.74;100.00
8653;BME280;4364;52.426;9.424;2023-08-01T00:39:24;99308.13;;;15.79;100.00
8653;BME280;4364;52.426;9.424;2023-08-01T00:41:50;99307.41;;;15.82;100.00
8653;BME280;4364;52.426;9.424;2023-08-01T00:44:17;99310.16;;;15.82;100.00
8653;BME280;4364;52.426;9.424;2023-08-01T00:46:44;99314.16;;;15.84;100.00
8653;BME280;4364;52.426;9.424;2023-08-01T00:49:12;99315.88;;;15.89;100.00
8653;BME280;4364;52.426;9.424;2023-08-01T00:51:39;99302.81;;;15.98;100.00
8653;BME280;4364;52.426;9.424;2023-08-01T00:54:05;99315.47;;;16.03;100.00
8653;BME280;4364;52.426;9.424;2023-08-01T00:56:32;99311.47;;;16.00;100.00
8653;BME280;4364;52.426;9.424;2023-08-01T00:59:00;99304.31;;;15.96;100.00
8653;BME280;4364;52.426;9.424;2023-08-01T01:01:27;99302.81;;;15.98;100.00
8653;BME280;4364;52.426;9.424;2023-08-01T01:03:54;99280.63;;;16.03;100.00
8653;BME280;4364;52.426;9.424;2023-08-01T01:06:32;99287.91;;;16.11;100.00
8653;BME280;4364;52.426;9.424;2023-08-01T01:08:59;99281.53;;;16.07;100.00
8653;BME280;4364;52.426;9.424;2023-08-01T01:11:26;99289.44;;;15.97;100.00
8653;BME280;4364;52.426;9.424;2023-08-01T01:13:52;99287.63;;;16.01;100.00
8653;BME280;4364;52.426;9.424;2023-08-01T01:16:20;99287.13;;;15.99;100.00
8653;BME280;4364;52.426;9.424;2023-08-01T01:18:47;99292.19;;;15.97;100.00
8653;BME280;4364;52.426;9.424;2023-08-01T01:21:14;99279.16;;;15.93;100.00
8653;BME280;4364;52.426;9.424;2023-08-01T01:23:41;99285.91;;;15.96;100.00
8653;BME280;4364;52.426;9.424;2023-08-01T01:26:09;99281.56;;;15.95;100.00
8653;BME280;4364;52.426;9.424;2023-08-01T01:28:37;99286.34;;;15.98;100.00
8653;BME280;4364;52.426;9.424;2023-08-01T01:31:03;99282.72;;;15.94;100.00
8653;BME280;4364;52.426;9.424;2023-08-01T01:33:31;99280.31;;;15.92;100.00
8653;BME280;4364;52.426;9.424;2023-08-01T01:36:00;99266.97;;;15.91;100.00
8653;BME280;4364;52.426;9.424;2023-08-01T01:38:27;99262.63;;;15.90;100.00
8653;BME280;4364;52.426;9.424;2023-08-01T01:40:53;99266.97;;;15.91;100.00
8653;BME280;4364;52.426;9.424;2023-08-01T01:43:19;99259.19;;;15.93;100.00
8653;BME280;4364;52.426;9.424;2023-08-01T01:45:46;99258.06;;;15.94;100.00
8653;BME280;4364;52.426;9.424;2023-08-01T01:48:13;99249.84;;;15.94;100.00
8653;BME280;4364;52.426;9.424;2023-08-01T01:50:39;99250.97;;;15.93;100.00
8653;BME280;4364;52.426;9.424;2023-08-01T01:53:06;99249.84;;;15.94;100.00
8653;BME280;4364;52.426;9.424;2023-08-01T01:55:32;99232.44;;;16.02;100.00
8653;BME280;4364;52.426;9.424;2023-08-01T01:58:00;99236.06;;;16.06;100.00
8653;BME280;4364;52.426;9.424;2023-08-01T02:00:27;99228.34;;;15.96;100.00
8653;BME280;4364;52.426;9.424;2023-08-01T02:02:53;99223.81;;;15.88;100.00
8653;BME280;4364;52.426;9.424;2023-08-01T02:05:20;99211.34;;;15.90;100.00
8653;BME280;4364;52.426;9.424;2023-08-01T02:07:46;99212.78;;;16.00;100.00
8653;BME280;4364;52.426;9.424;2023-08-01T02:10:13;99206.00;;;16.10;100.00
8653;BME280;4364;52.426;9.424;2023-08-01T02:12:39;99206.56;;;15.75;100.00
8653;BME280;4364;52.426;9.424;2023-08-01T02:15:07;99208.41;;;15.71;100.00
8653;BME280;4364;52.426;9.424;2023-08-01T02:17:33;99215.50;;;15.72;100.00
8653;BME280;4364;52.426;9.424;2023-08-01T02:20:00;99220.06;;;15.68;100.00
8653;BME280;4364;52.426;9.424;2023-08-01T02:22:27;99212.19;;;15.66;100.00
8653;BME280;4364;52.426;9.424;2023-08-01T02:24:53;99196.91;;;15.65;100.00
8653;BME280;4364;52.426;9.424;2023-08-01T02:27:20;99205.72;;;15.59;100.00
8653;BME280;4364;52.426;9.424;2023-08-01T02:29:47;99190.88;;;15.60;100.00
8653;BME280;4364;52.426;9.424;2023-08-01T02:32:16;99194.97;;;15.53;100.00
8653;BME280;4364;52.426;9.424;2023-08-01T02:34:43;99177.25;;;15.63;100.00
8653;BME280;4364;52.426;9.424;2023-08-01T02:37:10;99180.25;;;15.58;100.00
8653;BME280;4364;52.426;9.424;2023-08-01T02:39:36;99176.03;;;15.61;100.00
8653;BME280;4364;52.426;9.424;2023-08-01T02:42:03;99169.38;;;15.62;100.00
8653;BME280;4364;52.426;9.424;2023-08-01T02:44:29;99178.53;;;15.66;100.00
8653;BME280;4364;52.426;9.424;2023-08-01T02:46:56;99178.88;;;15.64;100.00
8653;BME280;4364;52.426;9.424;2023-08-01T02:49:22;99175.00;;;15.65;100.00
8653;BME280;4364;52.426;9.424;2023-08-01T02:51:49;99167.72;;;15.57;100.00
8653;BME280;4364;52.426;9.424;2023-08-01T02:54:15;99169.53;;;15.53;100.00
8653;BME280;4364;52.426;9.424;2023-08-01T02:56:42;99148.53;;;15.57;100.00
8653;BME280;4364;52.426;9.424;2023-08-01T02:59:09;99151.06;;;15.50;100.00
8653;BME280;4364;52.426;9.424;2023-08-01T03:01:36;99150.97;;;15.46;100.00
8653;BME280;4364;52.426;9.424;2023-08-01T03:04:04;99146.06;;;15.52;100.00
8653;BME280;4364;52.426;9.424;2023-08-01T03:06:31;99143.09;;;15.45;100.00
8653;BME280;4364;52.426;9.424;2023-08-01T03:08:58;99143.34;;;15.40;100.00
8653;BME280;4364;52.426;9.424;2023-08-01T03:11:25;99141.16;;;15.45;100.00
8653;BME280;4364;52.426;9.424;2023-08-01T03:13:52;99126.13;;;15.39;100.00
8653;BME280;4364;52.426;9.424;2023-08-01T03:16:18;99133.28;;;15.44;100.00
8653;BME280;4364;52.426;9.424;2023-08-01T03:18:45;99130.91;;;15.42;100.00
8653;BME280;4364;52.426;9.424;2023-08-01T03:21:12;99129.53;;;15.36;100.00
8653;BME280;4364;52.426;9.424;2023-08-01T03:23:39;99132.47;;;15.43;100.00
8653;BME280;4364;52.426;9.424;2023-08-01T03:26:07;99139.03;;;15.38;100.00
8653;BME280;4364;52.426;9.424;2023-08-01T03:28:33;99136.63;;;15.37;100.00
8653;BME280;4364;52.426;9.424;2023-08-01T03:31:00;99142.53;;;15.39;100.00
8653;BME280;4364;52.426;9.424;2023-08-01T03:33:26;99131.38;;;15.32;100.00
8653;BME280;4364;52.426;9.424;2023-08-01T03:35:53;99128.19;;;15.30;100.00
8653;BME280;4364;52.426;9.424;2023-08-01T03:38:19;99132.88;;;15.29;100.00
8653;BME280;4364;52.426;9.424;2023-08-01T03:40:46;99123.19;;;15.32;100.00
8653;BME280;4364;52.426;9.424;2023-08-01T03:43:13;99131.25;;;15.28;100.00
8653;BME280;4364;52.426;9.424;2023-08-01T03:45:39;99136.19;;;15.23;100.00
8653;BME280;4364;52.426;9.424;2023-08-01T03:48:06;99129.34;;;15.16;100.00
8653;BME280;4364;52.426;9.424;2023-08-01T03:50:32;99136.34;;;15.14;100.00
8653;BME280;4364;52.426;9.424;2023-08-01T03:52:59;99144.19;;;15.15;100.00
8653;BME280;4364;52.426;9.424;2023-08-01T03:55:25;99145.53;;;15.22;100.00
8653;BME280;4364;52.426;9.424;2023-08-01T03:57:52;99151.94;;;15.26;100.00
8653;BME280;4364;52.426;9.424;2023-08-01T04:00:18;99150.66;;;15.23;100.00
8653;BME280;4364;52.426;9.424;2023-08-01T04:02:45;99149.69;;;15.15;100.00
8653;BME280;4364;52.426;9.424;2023-08-01T04:05:17;99135.06;;;15.24;100.00
8653;BME280;4364;52.426;9.424;2023-08-01T04:07:44;99137.66;;;15.20;100.00
8653;BME280;4364;52.426;9.424;2023-08-01T04:10:10;99150.38;;;15.12;100.00
8653;BME280;4364;52.426;9.424;2023-08-01T04:12:37;99145.56;;;15.09;100.00
8653;BME280;4364;52.426;9.424;2023-08-01T04:15:04;99148.09;;;15.02;100.00
8653;BME280;4364;52.426;9.424;2023-08-01T04:17:31;99147.19;;;15.10;100.00
8653;BME280;4364;52.426;9.424;2023-08-01T04:19:57;99153.25;;;15.04;100.00
8653;BME280;4364;52.426;9.424;2023-08-01T04:22:24;99149.78;;;15.07;100.00
8653;BME280;4364;52.426;9.424;2023-08-01T04:24:50;99148.56;;;15.04;100.00
8653;BME280;4364;52.426;9.424;2023-08-01T04:27:17;99138.06;;;14.94;100.00
8653;BME280;4364;52.426;9.424;2023-08-01T04:29:43;99148.44;;;15.00;100.00
8653;BME280;4364;52.426;9.424;2023-08-01T04:32:10;99148.75;;;15.11;100.00
8653;BME280;4364;52.426;9.424;2023-08-01T04:34:39;99146.59;;;15.05;100.00
8653;BME280;4364;52.426;9.424;2023-08-01T04:37:06;99155.41;;;14.98;100.00
8653;BME280;4364;52.426;9.424;2023-08-01T04:39:32;99137.25;;;14.93;100.00
8653;BME280;4364;52.426;9.424;2023-08-01T04:41:59;99135.78;;;14.96;100.00
8653;BME280;4364;52.426;9.424;2023-08-01T04:44:25;99135.09;;;14.99;100.00
8653;BME280;4364;52.426;9.424;2023-08-01T04:46:52;99138.28;;;15.01;100.00
8653;BME280;4364;52.426;9.424;2023-08-01T04:49:18;99145.13;;;15.07;100.00
8653;BME280;4364;52.426;9.424;2023-08-01T04:51:45;99132.13;;;15.04;100.00
8653;BME280;4364;52.426;9.424;2023-08-01T04:54:11;99136.34;;;15.14;100.00
8653;BME280;4364;52.426;9.424;2023-08-01T04:56:38;99130.03;;;15.13;100.00
8653;BME280;4364;52.426;9.424;2023-08-01T04:59:05;99138.16;;;15.10;100.00
8653;BME280;4364;52.426;9.424;2023-08-01T05:01:32;99136.34;;;15.14;100.00
8653;BME280;4364;52.426;9.424;2023-08-01T05:03:58;99131.75;;;15.18;100.00
8653;BME280;4364;52.426;9.424;2023-08-01T05:06:25;99141.13;;;15.17;100.00
8653;BME280;4364;52.426;9.424;2023-08-01T05:08:52;99138.72;;;15.15;100.00
8653;BME280;4364;52.426;9.424;2023-08-01T05:11:18;99142.59;;;15.14;100.00
8653;BME280;4364;52.426;9.424;2023-08-01T05:13:45;99142.94;;;15.13;100.00
8653;BME280;4364;52.426;9.424;2023-08-01T05:16:12;99147.38;;;15.17;100.00
8653;BME280;4364;52.426;9.424;2023-08-01T05:18:38;99148.28;;;15.22;100.00
8653;BME280;4364;52.426;9.424;2023-08-01T05:21:05;99156.03;;;15.19;100.00
8653;BME280;4364;52.426;9.424;2023-08-01T05:23:31;99160.03;;;15.22;100.00
8653;BME280;4364;52.426;9.424;2023-08-01T05:25:58;99149.97;;;15.26;100.00
8653;BME280;4364;52.426;9.424;2023-08-01T05:28:24;99144.69;;;15.46;100.00
8653;BME280;4364;52.426;9.424;2023-08-01T05:30:51;99147.78;;;15.44;100.00
8653;BME280;4364;52.426;9.424;2023-08-01T05:33:17;99147.91;;;15.35;100.00
8653;BME280;4364;52.426;9.424;2023-08-01T05:35:44;99149.59;;;15.40;100.00
8653;BME280;4364;52.426;9.424;2023-08-01T05:38:11;99143.69;;;15.38;100.00
8653;BME280;4364;52.426;9.424;2023-08-01T05:40:37;99149.81;;;15.47;100.00
8653;BME280;4364;52.426;9.424;2023-08-01T05:43:04;99155.06;;;15.40;100.00
8653;BME280;4364;52.426;9.424;2023-08-01T05:45:31;99152.34;;;15.40;100.00
8653;BME280;4364;52.426;9.424;2023-08-01T05:47:57;99145.81;;;15.45;100.00
8653;BME280;4364;52.426;9.424;2023-08-01T05:50:24;99148.13;;;15.71;100.00
8653;BME280;4364;52.426;9.424;2023-08-01T05:52:50;99147.72;;;15.56;100.00
8653;BME280;4364;52.426;9.424;2023-08-01T05:55:17;99156.44;;;15.46;100.00
8653;BME280;4364;52.426;9.424;2023-08-01T05:57:44;99153.59;;;15.43;100.00
8653;BME280;4364;52.426;9.424;2023-08-01T06:00:11;99153.00;;;15.49;100.00
8653;BME280;4364;52.426;9.424;2023-08-01T06:02:38;99155.56;;;15.42;100.00
8653;BME280;4364;52.426;9.424;2023-08-01T06:05:05;99161.56;;;15.48;100.00
8653;BME280;4364;52.426;9.424;2023-08-01T06:07:32;99160.69;;;15.44;100.00
8653;BME280;4364;52.426;9.424;2023-08-01T06:09:59;99166.91;;;15.56;100.00
8653;BME280;4364;52.426;9.424;2023-08-01T06:12:25;99168.84;;;15.56;100.00
8653;BME280;4364;52.426;9.424;2023-08-01T06:14:52;99171.44;;;15.65;100.00
8653;BME280;4364;52.426;9.424;2023-08-01T06:17:18;99174.69;;;15.54;100.00
8653;BME280;4364;52.426;9.424;2023-08-01T06:19:45;99168.41;;;15.54;100.00
8653;BME280;4364;52.426;9.424;2023-08-01T06:22:11;99176.72;;;15.57;100.00
8653;BME280;4364;52.426;9.424;2023-08-01T06:24:38;99168.84;;;15.56;100.00
8653;BME280;4364;52.426;9.424;2023-08-01T06:27:05;99166.22;;;15.60;100.00
8653;BME280;4364;52.426;9.424;2023-08-01T06:29:32;99172.03;;;15.58;100.00
8653;BME280;4364;52.426;9.424;2023-08-01T06:31:59;99174.34;;;15.56;100.00
8653;BME280;4364;52.426;9.424;2023-08-01T06:34:26;99173.28;;;15.61;100.00
8653;BME280;4364;52.426;9.424;2023-08-01T06:36:53;99180.34;;;15.62;100.00
8653;BME280;4364;52.426;9.424;2023-08-01T06:39:19;99173.28;;;15.61;100.00
8653;BME280;4364;52.426;9.424;2023-08-01T06:41:46;99177.94;;;15.72;100.00
8653;BME280;4364;52.426;9.424;2023-08-01T06:44:13;99182.25;;;15.73;100.00
8653;BME280;4364;52.426;9.424;2023-08-01T06:46:39;99179.16;;;15.75;100.00
8653;BME280;4364;52.426;9.424;2023-08-01T06:49:06;99188.09;;;15.72;100.00
8653;BME280;4364;52.426;9.424;2023-08-01T06:51:32;99187.16;;;15.80;100.00
8653;BME280;4364;52.426;9.424;2023-08-01T06:53:59;99196.19;;;15.81;100.00
8653;BME280;4364;52.426;9.424;2023-08-01T06:56:26;99189.88;;;15.92;100.00
8653;BME280;4364;52.426;9.424;2023-08-01T06:58:52;99197.75;;;15.94;100.00
8653;BME280;4364;52.426;9.424;2023-08-01T07:01:19;99190.97;;;16.04;100.00
8653;BME280;4364;52.426;9.424;2023-08-01T07:03:45;99190.72;;;16.09;100.00
8653;BME280;4364;52.426;9.424;2023-08-01T07:06:12;99187.25;;;16.12;100.00
8653;BME280;4364;52.426;9.424;2023-08-01T07:08:39;99190.38;;;16.26;100.00
8653;BME280;4364;52.426;9.424;2023-08-01T07:11:05;99202.47;;;16.09;100.00
8653;BME280;4364;52.426;9.424;2023-08-01T07:13:32;99199.28;;;16.07;100.00
8653;BME280;4364;52.426;9.424;2023-08-01T07:15:58;99201.22;;;16.07;100.00
8653;BME280;4364;52.426;9.424;2023-08-01T07:18:25;99202.91;;;16.11;100.00
8653;BME280;4364;52.426;9.424;2023-08-01T07:21:02;99213.00;;;16.07;100.00
8653;BME280;4364;52.426;9.424;2023-08-01T07:23:30;99216.19;;;16.09;100.00
8653;BME280;4364;52.426;9.424;2023-08-01T07:25:56;99205.41;;;16.17;100.00
8653;BME280;4364;52.426;9.424;2023-08-01T07:28:23;99223.19;;;16.23;100.00
8653;BME280;4364;52.426;9.424;2023-08-01T07:31:07;99216.94;;;16.22;100.00
8653;BME280;4364;52.426;9.424;2023-08-01T07:33:35;99216.09;;;16.22;100.00
8653;BME280;4364;52.426;9.424;2023-08-01T07:36:03;99219.41;;;16.27;100.00
8653;BME280;4364;52.426;9.424;2023-08-01T07:38:30;99220.31;;;16.47;100.00
8653;BME280;4364;52.426;9.424;2023-08-01T07:41:03;99221.56;;;16.66;100.00
8653;BME280;4364;52.426;9.424;2023-08-01T07:43:30;99220.41;;;16.67;100.00
8653;BME280;4364;52.426;9.424;2023-08-01T07:45:57;99228.66;;;16.83;100.00
8653;BME280;4364;52.426;9.424;2023-08-01T07:48:24;99226.09;;;16.74;100.00
8653;BME280;4364;52.426;9.424;2023-08-01T07:50:51;99230.59;;;16.82;100.00
8653;BME280;4364;52.426;9.424;2023-08-01T07:53:18;99236.72;;;16.92;100.00
8653;BME280;4364;52.426;9.424;2023-08-01T07:55:45;99228.41;;;17.04;100.00
8653;BME280;4364;52.426;9.424;2023-08-01T07:58:11;99228.03;;;17.06;100.00
8653;BME280;4364;52.426;9.424;2023-08-01T08:00:38;99232.25;;;17.19;100.00
8653;BME280;4364;52.426;9.424;2023-08-01T08:03:05;99237.22;;;17.29;98.47
8653;BME280;4364;52.426;9.424;2023-08-01T08:05:34;99233.50;;;17.21;96.99
8653;BME280;4364;52.426;9.424;2023-08-01T08:08:05;99224.91;;;17.23;97.25
8653;BME280;4364;52.426;9.424;2023-08-01T08:10:32;99236.63;;;17.20;96.98
8653;BME280;4364;52.426;9.424;2023-08-01T08:12:58;99236.63;;;17.20;96.79
8653;BME280;4364;52.426;9.424;2023-08-01T08:15:25;99236.25;;;17.37;97.43
8653;BME280;4364;52.426;9.424;2023-08-01T08:17:52;99233.97;;;17.78;95.37
8653;BME280;4364;52.426;9.424;2023-08-01T08:20:19;99238.78;;;17.66;94.98
8653;BME280;4364;52.426;9.424;2023-08-01T08:22:45;99235.44;;;17.37;98.46
8653;BME280;4364;52.426;9.424;2023-08-01T08:25:12;99235.19;;;17.26;100.00
8653;BME280;4364;52.426;9.424;2023-08-01T08:27:38;99247.53;;;17.00;99.74
8653;BME280;4364;52.426;9.424;2023-08-01T08:30:06;99234.84;;;16.80;100.00
8653;BME280;4364;52.426;9.424;2023-08-01T08:32:32;99243.06;;;16.48;100.00
8653;BME280;4364;52.426;9.424;2023-08-01T08:34:59;99237.84;;;16.43;100.00
8653;BME280;4364;52.426;9.424;2023-08-01T08:37:25;99228.34;;;16.40;100.00
8653;BME280;4364;52.426;9.424;2023-08-01T08:39:52;99234.22;;;16.55;100.00
8653;BME280;4364;52.426;9.424;2023-08-01T08:42:18;99231.13;;;16.56;100.00
8653;BME280;4364;52.426;9.424;2023-08-01T08:44:55;99228.13;;;16.77;100.00
8653;BME280;4364;52.426;9.424;2023-08-01T08:47:25;99226.19;;;16.94;100.00
8653;BME280;4364;52.426;9.424;2023-08-01T08:49:55;99231.94;;;17.04;100.00
8653;BME280;4364;52.426;9.424;2023-08-01T08:52:22;99228.81;;;17.22;100.00
8653;BME280;4364;52.426;9.424;2023-08-01T08:54:50;99214.09;;;17.30;100.00
8653;BME280;4364;52.426;9.424;2023-08-01T08:57:18;99211.03;;;17.51;100.00
8653;BME280;4364;52.426;9.424;2023-08-01T08:59:47;99214.84;;;17.86;100.00
8653;BME280;4364;52.426;9.424;2023-08-01T09:02:15;99221.47;;;18.01;98.80
8653;BME280;4364;52.426;9.424;2023-08-01T09:04:41;99223.56;;;18.07;98.46
8653;BME280;4364;52.426;9.424;2023-08-01T09:07:09;99229.88;;;17.88;93.92
8653;BME280;4364;52.426;9.424;2023-08-01T09:09:37;99235.88;;;17.94;96.07
8653;BME280;4364;52.426;9.424;2023-08-01T09:12:05;99228.63;;;18.05;91.25
8653;BME280;4364;52.426;9.424;2023-08-01T09:14:32;99230.72;;;18.12;93.89
8653;BME280;4364;52.426;9.424;2023-08-01T09:17:07;99239.34;;;18.10;90.33
8653;BME280;4364;52.426;9.424;2023-08-01T09:19:34;99228.88;;;18.16;89.81
8653;BME280;4364;52.426;9.424;2023-08-01T09:22:01;99229.88;;;18.50;89.48
8653;BME280;4364;52.426;9.424;2023-08-01T09:24:28;99224.69;;;18.68;88.94
8653;BME280;4364;52.426;9.424;2023-08-01T09:27:02;99234.19;;;18.71;87.04
8653;BME280;4364;52.426;9.424;2023-08-01T09:29:29;99231.69;;;18.66;84.29
8653;BME280;4364;52.426;9.424;2023-08-01T09:31:58;99237.28;;;18.46;84.63
8653;BME280;4364;52.426;9.424;2023-08-01T09:34:26;99237.19;;;18.20;84.97
8653;BME280;4364;52.426;9.424;2023-08-01T09:37:00;99243.09;;;18.41;84.42
8653;BME280;4364;52.426;9.424;2023-08-01T09:39:28;99240.72;;;18.86;85.48
8653;BME280;4364;52.426;9.424;2023-08-01T09:41:58;99231.25;;;18.83;82.38
8653;BME280;4364;52.426;9.424;2023-08-01T09:44:26;99238.50;;;19.18;81.22
8653;BME280;4364;52.426;9.424;2023-08-01T09:46:57;99238.91;;;19.20;80.99
8653;BME280;4364;52.426;9.424;2023-08-01T09:49:24;99238.63;;;19.56;78.67
8653;BME280;4364;52.426;9.424;2023-08-01T09:51:51;99245.28;;;19.78;76.76
8653;BME280;4364;52.426;9.424;2023-08-01T09:54:18;99239.94;;;19.66;71.35
8653;BME280;4364;52.426;9.424;2023-08-01T09:56:45;99235.56;;;19.34;72.59
8653;BME280;4364;52.426;9.424;2023-08-01T09:59:12;99237.84;;;19.29;74.90
8653;BME280;4364;52.426;9.424;2023-08-01T10:01:43;99242.09;;;19.22;74.45
8653;BME280;4364;52.426;9.424;2023-08-01T10:04:11;99233.94;;;19.30;72.81
8653;BME280;4364;52.426;9.424;2023-08-01T10:06:41;99229.88;;;19.20;72.45
8653;BME280;4364;52.426;9.424;2023-08-01T10:09:10;99231.44;;;19.21;74.58
8653;BME280;4364;52.426;9.424;2023-08-01T10:11:38;99238.06;;;19.16;74.71
8653;BME280;4364;52.426;9.424;2023-08-01T10:14:06;99231.13;;;19.26;75.85
8653;BME280;4364;52.426;9.424;2023-08-01T10:16:33;99232.81;;;19.34;74.47
8653;BME280;4364;52.426;9.424;2023-08-01T10:19:00;99237.25;;;19.42;73.92
8653;BME280;4364;52.426;9.424;2023-08-01T10:21:29;99237.22;;;19.12;73.46
8653;BME280;4364;52.426;9.424;2023-08-01T10:23:57;99239.22;;;18.88;74.99
8653;BME280;4364;52.426;9.424;2023-08-01T10:26:24;99254.69;;;18.54;82.55
8653;BME280;4364;52.426;9.424;2023-08-01T10:28:52;99256.00;;;18.18;88.05
8653;BME280;4364;52.426;9.424;2023-08-01T10:31:19;99254.16;;;17.86;91.74
8653;BME280;4364;52.426;9.424;2023-08-01T10:33:48;99257.91;;;17.78;93.87
8653;BME280;4364;52.426;9.424;2023-08-01T10:36:23;99255.16;;;17.78;94.99
8653;BME280;4364;52.426;9.424;2023-08-01T10:38:53;99251.09;;;17.72;92.68
8653;BME280;4364;52.426;9.424;2023-08-01T10:41:31;99252.84;;;17.80;92.32
8653;BME280;4364;52.426;9.424;2023-08-01T10:44:09;99257.44;;;18.11;91.30
8653;BME280;4364;52.426;9.424;2023-08-01T10:46:52;99237.78;;;18.32;88.67
8653;BME280;4364;52.426;9.424;2023-08-01T10:49:32;99230.97;;;18.69;88.33
8653;BME280;4364;52.426;9.424;2023-08-01T10:51:59;99235.75;;;18.72;87.42
8653;BME280;4364;52.426;9.424;2023-08-01T10:54:26;99228.28;;;18.49;85.75
8653;BME280;4364;52.426;9.424;2023-08-01T10:56:55;99261.69;;;18.48;86.88
8653;BME280;4364;52.426;9.424;2023-08-01T10:59:21;99259.72;;;17.70;90.25
8653;BME280;4364;52.426;9.424;2023-08-01T11:01:53;99257.59;;;17.12;93.03
8653;BME280;4364;52.426;9.424;2023-08-01T11:04:21;99254.50;;;17.14;93.82
8653;BME280;4364;52.426;9.424;2023-08-01T11:06:53;99256.47;;;17.29;93.93
8653;BME280;4364;52.426;9.424;2023-08-01T11:09:23;99273.59;;;17.42;94.67
8653;BME280;4364;52.426;9.424;2023-08-01T11:11:56;99260.97;;;17.37;92.96
8653;BME280;4364;52.426;9.424;2023-08-01T11:14:26;99255.56;;;17.25;87.28
8653;BME280;4364;52.426;9.424;2023-08-01T11:16:56;99259.94;;;17.46;91.75
8653;BME280;4364;52.426;9.424;2023-08-01T11:19:25;99272.97;;;17.84;92.52
8653;BME280;4364;52.426;9.424;2023-08-01T11:21:52;99268.22;;;18.20;91.24
8653;BME280;4364;52.426;9.424;2023-08-01T11:24:19;99259.91;;;18.36;90.77
8653;BME280;4364;52.426;9.424;2023-08-01T11:26:48;99277.44;;;18.28;87.52
8653;BME280;4364;52.426;9.424;2023-08-01T11:29:16;99280.59;;;18.30;88.16
8653;BME280;4364;52.426;9.424;2023-08-01T11:31:58;99277.44;;;18.28;85.31
8653;BME280;4364;52.426;9.424;2023-08-01T11:34:25;99285.59;;;18.05;84.69
8653;BME280;4364;52.426;9.424;2023-08-01T11:36:52;99285.59;;;18.05;86.90
8653;BME280;4364;52.426;9.424;2023-08-01T11:39:19;99291.22;;;17.92;86.67
8653;BME280;4364;52.426;9.424;2023-08-01T11:41:45;99284.88;;;17.88;88.48
8653;BME280;4364;52.426;9.424;2023-08-01T11:44:12;99280.78;;;17.82;89.15
8653;BME280;4364;52.426;9.424;2023-08-01T11:46:39;99277.66;;;17.84;90.69
8653;BME280;4364;52.426;9.424;2023-08-01T11:49:07;99287.53;;;18.43;90.66
8653;BME280;4364;52.426;9.424;2023-08-01T11:51:44;99284.88;;;18.70;91.25
8653;BME280;4364;52.426;9.424;2023-08-01T11:54:11;99294.59;;;18.64;89.41
8653;BME280;4364;52.426;9.424;2023-08-01T11:56:40;99283.06;;;18.78;86.33
8653;BME280;4364;52.426;9.424;2023-08-01T11:59:10;99290.22;;;19.05;87.81
8653;BME280;4364;52.426;9.424;2023-08-01T12:01:41;99289.16;;;19.37;84.26
8653;BME280;4364;52.426;9.424;2023-08-01T12:04:08;99280.69;;;19.76;80.82
8653;BME280;4364;52.426;9.424;2023-08-01T12:06:35;99281.88;;;19.75;79.16
8653;BME280;4364;52.426;9.424;2023-08-01T12:09:12;99276.84;;;19.31;79.50
8653;BME280;4364;52.426;9.424;2023-08-01T12:11:40;99272.19;;;19.08;83.61
8653;BME280;4364;52.426;9.424;2023-08-01T12:16:46;99356.41;;;17.40;100.00
8653;BME280;4364;52.426;9.424;2023-08-01T12:19:19;99348.75;;;16.29;100.00
8653;BME280;4364;52.426;9.424;2023-08-01T12:21:47;99359.13;;;15.96;100.00
8653;BME280;4364;52.426;9.424;2023-08-01T12:24:13;99335.72;;;15.36;100.00
8653;BME280;4364;52.426;9.424;2023-08-01T12:26:40;99341.53;;;15.35;100.00
8653;BME280;4364;52.426;9.424;2023-08-01T12:29:07;99342.03;;;15.37;100.00
8653;BME280;4364;52.426;9.424;2023-08-01T12:31:34;99345.31;;;15.18;100.00
8653;BME280;4364;52.426;9.424;2023-08-01T12:34:01;99338.03;;;15.22;100.00
8653;BME280;4364;52.426;9.424;2023-08-01T12:36:27;99341.66;;;15.14;100.00
8653;BME280;4364;52.426;9.424;2023-08-01T12:38:54;99351.47;;;15.15;100.00
8653;BME280;4364;52.426;9.424;2023-08-01T12:41:21;99349.53;;;15.28;100.00
8653;BME280;4364;52.426;9.424;2023-08-01T12:43:47;99350.78;;;15.18;100.00
8653;BME280;4364;52.426;9.424;2023-08-01T12:46:13;99353.28;;;15.23;100.00
8653;BME280;4364;52.426;9.424;2023-08-01T12:48:40;99344.28;;;15.23;100.00
8653;BME280;4364;52.426;9.424;2023-08-01T12:51:07;99351.38;;;15.24;100.00
8653;BME280;4364;52.426;9.424;2023-08-01T12:53:35;99353.88;;;15.41;100.00
8653;BME280;4364;52.426;9.424;2023-08-01T12:56:06;99349.22;;;15.54;100.00
8653;BME280;4364;52.426;9.424;2023-08-01T12:58:32;99338.13;;;15.63;100.00
8653;BME280;4364;52.426;9.424;2023-08-01T13:01:02;99350.00;;;15.67;100.00
8653;BME280;4364;52.426;9.424;2023-08-01T13:03:28;99357.53;;;15.70;100.00
8653;BME280;4364;52.426;9.424;2023-08-01T13:05:57;99355.03;;;15.52;100.00
8653;BME280;4364;52.426;9.424;2023-08-01T13:08:24;99340.19;;;15.41;100.00
8653;BME280;4364;52.426;9.424;2023-08-01T13:10:51;99349.19;;;15.42;100.00
8653;BME280;4364;52.426;9.424;2023-08-01T13:13:18;99349.19;;;15.42;100.00
8653;BME280;4364;52.426;9.424;2023-08-01T13:15:45;99349.09;;;15.38;100.00
8653;BME280;4364;52.426;9.424;2023-08-01T13:18:13;99346.78;;;15.40;100.00